Time;durP1;ratioP1;P1;durP2;ratioP2;P2;SDS_P1;SDS_P2;PMS_P1;PMS_P2;Temp;Humidity;BMP_temperature;BMP_pressure;BME280_temperature;BME280_humidity;BME280_pressure;Samples;Min_cycle;Max_cycle;Signal;HPM_P1;HPM_P2
2021/07/25 00:00:07;;;;;;;15.88;11.53;;;;;;;16.10;90.79;100265.95;1717699;83;21121;-80
2021/07/25 00:02:34;;;;;;;30.95;13.70;;;;;;;16.09;90.94;100260.23;1709469;82;20996;-77
2021/07/25 00:05:02;;;;;;;24.12;14.85;;;;;;;16.09;90.99;100259.39;1705800;82;21600;-81
2021/07/25 00:07:29;;;;;;;26.70;14.83;;;;;;;16.08;91.17;100259.87;1719232;82;21017;-82
2021/07/25 00:09:55;;;;;;;23.15;13.95;;;;;;;16.04;91.20;100261.47;1718946;83;21084;-82
2021/07/25 00:14:56;;;;;;;23.57;14.25;;;;;;;16.06;91.30;100261.75;1798033;79;22588;-82
2021/07/25 00:17:23;;;;;;;21.68;14.00;;;;;;;15.98;91.28;100260.00;1757078;81;21615;-81
2021/07/25 00:19:50;;;;;;;22.00;14.60;;;;;;;15.95;91.35;100261.52;1755904;81;21521;-85
2021/07/25 00:22:17;;;;;;;26.82;13.22;;;;;;;15.91;91.48;100260.81;1748475;82;21777;-83
2021/07/25 00:24:52;;;;;;;26.68;12.50;;;;;;;15.90;91.62;100263.10;1749081;82;21041;-83
2021/07/25 00:27:13;;;;;;;18.52;12.13;;;;;;;15.88;91.54;100265.47;1747262;82;22039;-80
2021/07/25 00:29:40;;;;;;;21.75;14.38;;;;;;;15.86;91.30;100262.04;1748358;82;21022;-82
2021/07/25 00:32:10;;;;;;;24.27;13.83;;;;;;;15.84;91.30;100258.61;1748696;82;21335;-83
2021/07/25 00:34:37;;;;;;;19.63;13.43;;;;;;;15.83;91.48;100259.09;1748849;82;21050;-82
2021/07/25 00:37:04;;;;;;;16.67;10.88;;;;;;;15.81;91.67;100256.14;1748571;82;21530;-82
2021/07/25 00:39:31;;;;;;;16.77;10.50;;;;;;;15.78;91.71;100255.84;1748418;82;21088;-82
2021/07/25 00:42:00;;;;;;;25.95;11.53;;;;;;;15.76;91.80;100256.84;1747943;82;21081;-84
2021/07/25 00:44:27;;;;;;;24.47;12.98;;;;;;;15.75;91.81;100259.13;1749002;82;21071;-84
2021/07/25 00:47:01;;;;;;;22.55;14.33;;;;;;;15.71;91.60;100261.97;1749034;81;20963;-83
2021/07/25 00:49:28;;;;;;;26.02;14.65;;;;;;;15.69;91.47;100257.18;1719594;82;20982;-82
2021/07/25 00:51:56;;;;;;;25.00;15.38;;;;;;;15.68;91.31;100253.27;1748686;81;21030;-84
2021/07/25 00:54:22;;;;;;;23.20;15.18;;;;;;;15.65;91.22;100252.98;1748990;82;21033;-82
2021/07/25 00:56:50;;;;;;;21.52;14.87;;;;;;;15.64;91.25;100261.87;1748774;82;21029;-83
2021/07/25 00:59:17;;;;;;;20.32;14.35;;;;;;;15.64;91.42;100264.52;1748706;82;21034;-85
2021/07/25 01:01:44;;;;;;;25.17;15.05;;;;;;;15.62;91.37;100263.78;1748746;82;21023;-84
2021/07/25 01:04:42;;;;;;;22.40;15.38;;;;;;;15.60;91.63;100261.68;1748904;82;21096;-83
2021/07/25 01:07:36;;;;;;;21.82;13.65;;;;;;;15.59;91.96;100265.25;1676792;82;21418;-83
2021/07/25 01:10:19;;;;;;;25.08;13.93;;;;;;;15.57;92.02;100269.79;1702980;84;21199;-84
2021/07/25 01:12:56;;;;;;;27.25;15.78;;;;;;;15.56;92.31;100270.75;1704143;84;21061;-83
2021/07/25 01:15:25;;;;;;;24.32;15.48;;;;;;;15.53;92.30;100273.58;1703892;84;21061;-83
2021/07/25 01:17:55;;;;;;;23.20;14.65;;;;;;;15.50;92.68;100272.41;1673196;84;22170;-83
2021/07/25 01:20:23;;;;;;;24.20;15.75;;;;;;;15.47;92.68;100269.92;1703476;84;21574;-81
2021/07/25 01:22:52;;;;;;;23.67;15.38;;;;;;;15.47;92.72;100271.25;1703200;82;21467;-81
2021/07/25 01:25:21;;;;;;;22.55;14.50;;;;;;;15.46;92.76;100268.20;1703418;84;21254;-83
2021/07/25 01:28:10;;;;;;;23.60;12.60;;;;;;;15.47;92.76;100276.56;1703105;84;21068;-80
2021/07/25 01:30:40;;;;;;;22.67;15.38;;;;;;;15.45;92.72;100275.78;1702664;83;21068;-82
2021/07/25 01:33:15;;;;;;;23.38;14.70;;;;;;;15.44;92.63;100275.41;1703054;84;21655;-84
2021/07/25 01:35:42;;;;;;;17.52;11.60;;;;;;;15.42;92.77;100275.48;1703198;84;21091;-82
2021/07/25 01:38:09;;;;;;;19.98;13.62;;;;;;;15.42;92.96;100274.64;1672777;84;21370;-79
2021/07/25 01:40:38;;;;;;;22.52;14.35;;;;;;;15.40;92.65;100279.17;1702450;84;21108;-78
2021/07/25 01:43:09;;;;;;;26.87;14.95;;;;;;;15.38;92.43;100273.09;1702566;84;21033;-80
2021/07/25 01:45:35;;;;;;;26.23;14.87;;;;;;;15.37;92.44;100275.34;1702368;84;21103;-80
2021/07/25 01:48:03;;;;;;;21.65;14.58;;;;;;;15.34;92.60;100275.52;1702296;84;21104;-79
2021/07/25 01:50:30;;;;;;;20.45;14.80;;;;;;;15.29;93.02;100273.96;1703029;84;21116;-81
2021/07/25 01:52:57;;;;;;;19.25;15.05;;;;;;;15.29;93.39;100271.30;1702849;84;21092;-79
2021/07/25 01:55:24;;;;;;;30.15;15.50;;;;;;;15.28;93.32;100270.94;1702221;84;21566;-79
2021/07/25 01:57:51;;;;;;;23.30;15.70;;;;;;;15.29;93.52;100275.77;1702726;84;21116;-81
2021/07/25 02:00:18;;;;;;;24.65;14.63;;;;;;;15.29;93.62;100276.61;1702408;84;21103;-79
2021/07/25 02:02:45;;;;;;;23.95;14.90;;;;;;;15.31;93.74;100280.05;1702531;84;21073;-80
2021/07/25 02:05:12;;;;;;;24.50;15.15;;;;;;;15.34;93.99;100281.67;1702406;82;21600;-81
2021/07/25 02:07:40;;;;;;;25.72;14.87;;;;;;;15.37;94.07;100284.63;1702675;84;21068;-79
2021/07/25 02:10:09;;;;;;;17.20;10.20;;;;;;;15.40;94.10;100284.48;1702386;84;21549;-82
2021/07/25 02:12:36;;;;;;;25.55;15.23;;;;;;;15.41;94.06;100287.02;1712504;82;21122;-81
2021/07/25 02:15:05;;;;;;;22.95;15.88;;;;;;;15.44;94.02;100293.52;1736380;81;21070;-79
2021/07/25 02:17:32;;;;;;;18.23;12.53;;;;;;;15.45;93.98;100288.58;1734160;82;21488;-78
2021/07/25 02:19:59;;;;;;;16.35;11.33;;;;;;;15.46;93.87;100288.10;1733984;82;21664;-80
2021/07/25 02:22:26;;;;;;;22.65;14.63;;;;;;;15.47;93.57;100292.01;1734036;82;21029;-81
2021/07/25 02:24:53;;;;;;;22.45;16.05;;;;;;;15.48;93.26;100288.88;1734484;82;21501;-80
2021/07/25 02:27:20;;;;;;;23.42;15.48;;;;;;;15.51;93.18;100288.25;1734302;82;21545;-78
2021/07/25 02:29:47;;;;;;;23.52;15.48;;;;;;;15.52;92.85;100290.43;1734419;82;21498;-79
2021/07/25 02:32:14;;;;;;;24.43;15.83;;;;;;;15.52;92.43;100293.94;1734603;82;21018;-80
2021/07/25 02:34:41;;;;;;;26.85;16.17;;;;;;;15.54;92.22;100300.50;1734080;82;21196;-79
2021/07/25 02:37:14;;;;;;;26.95;16.17;;;;;;;15.54;92.05;100300.50;1733922;82;21595;-78
2021/07/25 02:39:40;;;;;;;25.10;16.40;;;;;;;15.53;92.01;100305.44;1734344;82;21074;-79
2021/07/25 02:42:07;;;;;;;23.50;15.93;;;;;;;15.54;92.48;100304.48;1734008;82;21104;-78
2021/07/25 02:44:35;;;;;;;27.20;17.00;;;;;;;15.56;92.87;100306.58;1734299;82;21523;-81
2021/07/25 02:47:02;;;;;;;28.50;17.05;;;;;;;15.55;93.11;100303.52;1734761;82;21065;-79
2021/07/25 02:49:28;;;;;;;28.38;16.17;;;;;;;15.55;93.27;100299.54;1734307;82;21176;-82
2021/07/25 02:51:56;;;;;;;20.52;14.93;;;;;;;15.55;93.44;100302.67;1734556;82;21588;-80
2021/07/25 02:54:23;;;;;;;23.27;15.80;;;;;;;15.53;93.51;100293.02;1734111;82;21545;-79
2021/07/25 02:56:52;;;;;;;23.22;15.35;;;;;;;15.53;93.54;100302.78;1734333;82;21061;-79
2021/07/25 02:59:21;;;;;;;27.05;15.55;;;;;;;15.55;93.66;100303.52;1734350;82;21482;-81
2021/07/25 03:01:50;;;;;;;20.15;13.00;;;;;;;15.56;93.66;100306.58;1733934;82;21557;-81
2021/07/25 03:04:19;;;;;;;21.60;14.90;;;;;;;15.59;93.58;100306.88;1734196;82;21051;-79
2021/07/25 03:06:48;;;;;;;23.95;14.58;;;;;;;15.62;93.42;100306.25;1734052;82;21077;-80
2021/07/25 03:09:15;;;;;;;24.72;15.58;;;;;;;15.66;93.27;100305.12;1734192;82;21289;-78
2021/07/25 03:11:43;;;;;;;22.85;15.30;;;;;;;15.73;93.04;100303.90;1734147;82;21694;-80
2021/07/25 03:14:10;;;;;;;23.90;16.07;;;;;;;15.80;93.15;100312.83;1707689;82;21108;-79
2021/07/25 03:16:37;;;;;;;23.65;15.03;;;;;;;15.84;92.93;100313.05;1704812;84;21101;-77
2021/07/25 03:19:04;;;;;;;23.05;15.38;;;;;;;15.92;93.00;100324.11;1704648;84;21502;-79
2021/07/25 03:21:32;;;;;;;22.22;14.87;;;;;;;15.96;93.14;100324.30;1704879;84;21753;-79
2021/07/25 03:24:00;;;;;;;28.25;15.03;;;;;;;16.04;92.99;100331.86;1704768;84;21112;-80
2021/07/25 03:26:27;;;;;;;28.62;17.17;;;;;;;16.11;92.75;100326.09;1704493;84;22190;-77
2021/07/25 03:28:54;;;;;;;27.85;14.95;;;;;;;16.19;92.44;100326.98;1704443;84;21097;-77
2021/07/25 03:31:21;;;;;;;26.23;15.30;;;;;;;16.25;92.03;100325.79;1704421;84;21101;-75
2021/07/25 03:33:48;;;;;;;22.37;14.90;;;;;;;16.30;91.67;100328.55;1704410;84;21042;-77
2021/07/25 03:36:15;;;;;;;22.55;14.87;;;;;;;16.37;91.38;100331.72;1704705;84;21076;-77
2021/07/25 03:38:42;;;;;;;25.82;15.08;;;;;;;16.45;91.31;100333.47;1704889;84;21109;-78
2021/07/25 03:41:09;;;;;;;20.60;13.38;;;;;;;16.60;91.20;100330.85;1704573;84;21022;-78
2021/07/25 03:43:36;;;;;;;22.00;11.95;;;;;;;16.78;90.76;100333.75;1704768;84;21066;-73
2021/07/25 03:46:03;;;;;;;19.52;13.72;;;;;;;16.99;90.13;100337.80;1704594;84;21109;-77
2021/07/25 03:48:31;;;;;;;20.20;13.55;;;;;;;17.35;89.29;100341.84;1704547;84;21053;-75
2021/07/25 03:50:58;;;;;;;28.00;14.98;;;;;;;17.54;87.94;100343.36;1704793;84;21116;-77
2021/07/25 03:53:25;;;;;;;21.87;14.70;;;;;;;17.76;86.83;100342.39;1704704;84;21140;-77
2021/07/25 03:55:52;;;;;;;23.47;14.35;;;;;;;18.21;85.78;100343.05;1641361;84;21050;-77
2021/07/25 03:58:19;;;;;;;21.52;14.95;;;;;;;18.72;83.63;100349.51;1704542;84;21210;-76
2021/07/25 04:00:46;;;;;;;22.35;14.65;;;;;;;19.24;82.17;100343.30;1704646;84;21003;-75
2021/07/25 04:03:13;;;;;;;25.00;15.30;;;;;;;19.74;79.70;100338.02;1704743;84;21927;-76
2021/07/25 04:05:40;;;;;;;22.35;16.02;;;;;;;20.10;77.75;100341.17;1704557;84;21096;-76
2021/07/25 04:08:10;;;;;;;25.05;16.40;;;;;;;20.41;76.16;100337.09;1715181;82;21123;-78
2021/07/25 04:10:41;;;;;;;24.70;15.95;;;;;;;20.75;74.48;100345.27;1711720;82;21133;-79
2021/07/25 04:13:09;;;;;;;24.40;15.25;;;;;;;21.10;73.25;100337.21;1648179;85;21177;-78
2021/07/25 04:15:42;;;;;;;20.68;14.58;;;;;;;21.46;71.46;100342.00;1680984;83;21128;-76
2021/07/25 04:18:09;;;;;;;23.32;14.68;;;;;;;21.84;69.34;100342.13;1702446;83;21521;-80
2021/07/25 04:20:36;;;;;;;24.52;14.85;;;;;;;22.27;67.25;100343.14;1690398;84;21090;-77
2021/07/25 04:23:03;;;;;;;18.20;15.10;;;;;;;22.41;65.55;100337.50;1693332;84;21114;-78
2021/07/25 04:25:31;;;;;;;24.27;15.18;;;;;;;22.20;65.61;100340.95;1685241;84;21085;-78
2021/07/25 04:27:59;;;;;;;20.55;15.60;;;;;;;22.24;65.61;100340.72;1676914;85;21142;-77
2021/07/25 04:30:28;;;;;;;20.88;14.90;;;;;;;22.46;65.10;100347.85;1677783;84;21645;-78
2021/07/25 04:32:57;;;;;;;22.35;15.40;;;;;;;22.87;64.07;100343.48;1676817;84;21030;-78
2021/07/25 04:35:25;;;;;;;17.67;13.75;;;;;;;23.35;62.62;100348.33;1670183;84;21681;-79
2021/07/25 04:37:54;;;;;;;19.35;14.53;;;;;;;23.76;60.41;100341.17;1678573;84;21100;-78
2021/07/25 04:40:26;;;;;;;21.95;14.50;;;;;;;24.18;59.65;100339.64;1683069;84;21084;-77
2021/07/25 04:42:56;;;;;;;22.75;14.95;;;;;;;24.56;58.35;100342.05;1683720;84;21070;-80
2021/07/25 04:45:50;;;;;;;21.23;14.90;;;;;;;24.90;57.72;100343.80;1669044;85;22435;-78
2021/07/25 04:48:31;;;;;;;24.40;14.28;;;;;;;25.16;56.09;100341.82;1670721;85;21671;-78
2021/07/25 04:51:06;;;;;;;18.82;14.35;;;;;;;25.44;55.60;100337.36;1680607;84;21089;-78
2021/07/25 04:53:41;;;;;;;21.48;13.22;;;;;;;25.83;54.33;100346.63;1670215;84;21913;-78
2021/07/25 04:56:11;;;;;;;21.62;14.10;;;;;;;26.12;53.44;100345.98;1641369;87;21084;-78
2021/07/25 04:58:49;;;;;;;18.80;12.25;;;;;;;26.42;52.26;100352.53;1642067;87;21545;-78
2021/07/25 05:01:22;;;;;;;20.25;13.95;;;;;;;26.60;51.66;100349.87;1641673;87;21555;-79
2021/07/25 05:03:50;;;;;;;18.27;13.75;;;;;;;26.78;50.83;100349.34;1650692;85;21108;-77
2021/07/25 05:06:18;;;;;;;20.35;12.78;;;;;;;26.92;50.75;100347.42;1690737;84;21497;-79
2021/07/25 05:08:46;;;;;;;15.55;12.10;;;;;;;27.15;50.22;100344.21;1673741;83;21010;-78
2021/07/25 05:11:20;;;;;;;18.20;12.70;;;;;;;27.45;49.27;100343.38;1694941;83;21073;-79
2021/07/25 05:13:50;;;;;;;17.48;13.62;;;;;;;27.79;48.37;100346.94;1693648;83;21818;-78
2021/07/25 05:16:28;;;;;;;23.25;14.53;;;;;;;28.18;47.22;100347.77;1684502;83;21101;-78
2021/07/25 05:19:22;;;;;;;17.52;12.60;;;;;;;28.42;46.44;100342.05;1682612;85;21178;-77
2021/07/25 05:22:16;;;;;;;17.40;13.03;;;;;;;28.57;45.28;100345.80;1708976;82;21046;-79
2021/07/25 05:24:43;;;;;;;21.93;14.70;;;;;;;28.58;44.71;100347.51;1704533;84;21616;-77
2021/07/25 05:27:19;;;;;;;19.85;14.30;;;;;;;28.45;45.96;100353.89;1706121;82;21092;-77
2021/07/25 05:29:48;;;;;;;22.77;14.68;;;;;;;28.58;45.86;100351.57;1702742;82;21521;-79
2021/07/25 05:32:15;;;;;;;21.57;15.95;;;;;;;28.79;45.73;100354.29;1690736;82;21145;-79
2021/07/25 05:34:43;;;;;;;25.57;16.85;;;;;;;28.73;46.20;100354.95;1697271;82;21211;-79
2021/07/25 05:37:09;;;;;;;24.30;15.43;;;;;;;28.62;46.43;100355.64;1722795;82;21411;-79
2021/07/25 05:39:36;;;;;;;26.77;16.52;;;;;;;28.71;46.38;100351.56;1713735;82;21075;-80
2021/07/25 05:42:03;;;;;;;22.87;14.75;;;;;;;28.92;46.03;100350.56;1704758;84;21264;-80
2021/07/25 05:44:31;;;;;;;21.10;15.45;;;;;;;29.00;45.83;100350.53;1704739;84;21084;-80
2021/07/25 05:47:00;;;;;;;18.75;13.53;;;;;;;29.06;45.39;100347.66;1703686;82;21106;-80
2021/07/25 05:49:27;;;;;;;18.17;12.23;;;;;;;29.15;43.52;100352.09;1704128;84;21011;-79
2021/07/25 05:51:54;;;;;;;17.25;12.25;;;;;;;29.25;43.73;100343.76;1703893;84;21565;-78
2021/07/25 05:54:21;;;;;;;18.23;11.97;;;;;;;29.34;42.28;100348.14;1704306;84;21918;-81
2021/07/25 05:56:48;;;;;;;13.90;10.63;;;;;;;29.49;41.17;100351.84;1703960;84;21101;-81
2021/07/25 05:59:15;;;;;;;13.70;9.60;;;;;;;29.58;40.64;100347.72;1704227;84;21053;-80
2021/07/25 06:01:44;;;;;;;16.23;10.98;;;;;;;29.56;39.41;100351.11;1704054;84;21069;-81
2021/07/25 06:04:11;;;;;;;17.25;10.18;;;;;;;29.61;40.33;100355.02;1704639;84;21046;-80
2021/07/25 06:06:38;;;;;;;12.90;8.58;;;;;;;29.82;39.47;100359.88;1705020;84;21081;-80
2021/07/25 06:09:07;;;;;;;13.03;9.23;;;;;;;29.87;38.53;100360.70;1705008;84;21471;-81
2021/07/25 06:11:34;;;;;;;18.85;10.40;;;;;;;29.86;38.27;100359.86;1704785;84;21026;-82
2021/07/25 06:14:03;;;;;;;15.88;11.08;;;;;;;29.88;38.65;100360.50;1705321;84;21109;-79
2021/07/25 06:16:32;;;;;;;15.38;9.55;;;;;;;29.66;38.94;100357.20;1716086;83;21639;-79
2021/07/25 06:18:59;;;;;;;13.30;10.38;;;;;;;29.43;39.48;100353.04;1718587;83;21013;-80
2021/07/25 06:21:27;;;;;;;17.67;10.43;;;;;;;29.45;40.07;100360.50;1718320;83;21125;-80
2021/07/25 06:23:55;;;;;;;17.27;11.45;;;;;;;29.39;39.66;100353.88;1718449;83;21011;-82
2021/07/25 06:26:23;;;;;;;17.25;11.93;;;;;;;29.28;40.05;100361.87;1718201;83;21655;-80
2021/07/25 06:28:50;;;;;;;16.12;11.33;;;;;;;29.19;39.53;100361.55;1718503;83;21030;-80
2021/07/25 06:31:17;;;;;;;15.20;10.40;;;;;;;29.19;39.84;100362.06;1718322;83;21018;-81
2021/07/25 06:33:44;;;;;;;11.60;9.60;;;;;;;29.17;38.23;100362.74;1718545;83;21041;-80
2021/07/25 06:36:12;;;;;;;19.25;10.70;;;;;;;29.24;38.14;100358.31;1724951;82;21078;-79
2021/07/25 06:38:40;;;;;;;15.10;11.12;;;;;;;29.24;38.49;100352.89;1746726;82;21155;-82
2021/07/25 06:41:06;;;;;;;16.42;10.98;;;;;;;29.16;38.31;100357.00;1746474;82;21089;-80
2021/07/25 06:43:34;;;;;;;17.20;10.65;;;;;;;29.14;39.07;100360.38;1746646;82;21113;-80
2021/07/25 06:46:02;;;;;;;17.85;12.35;;;;;;;29.45;39.39;100354.55;1680123;85;21148;-80
2021/07/25 06:48:31;;;;;;;15.60;11.75;;;;;;;29.77;38.12;100359.56;1747640;82;21013;-81
2021/07/25 06:51:00;;;;;;;14.43;11.63;;;;;;;29.92;38.12;100358.81;1760328;80;21034;-82
2021/07/25 06:53:29;;;;;;;20.10;13.00;;;;;;;30.05;37.80;100363.16;1779157;80;21045;-78
2021/07/25 06:55:59;;;;;;;24.23;13.55;;;;;;;30.13;38.22;100369.89;1778823;80;21019;-81
2021/07/25 06:58:26;;;;;;;16.02;11.50;;;;;;;30.29;39.41;100369.82;1779300;80;21801;-79
2021/07/25 07:00:53;;;;;;;16.55;12.23;;;;;;;30.22;39.14;100379.69;1779677;80;21076;-80
2021/07/25 07:03:20;;;;;;;14.80;11.12;;;;;;;30.30;37.95;100374.25;1779197;80;21596;-81
2021/07/25 07:05:47;;;;;;;13.93;10.18;;;;;;;30.27;38.87;100367.80;1778968;80;21025;-80
2021/07/25 07:08:15;;;;;;;11.93;10.08;;;;;;;30.41;35.93;100372.13;1779368;80;21053;-79
2021/07/25 07:10:45;;;;;;;17.98;11.60;;;;;;;30.37;36.67;100372.16;1779679;80;21109;-81
2021/07/25 07:13:14;;;;;;;;;;;;;;;30.26;37.38;100378.83;1735684;81;21611;-80
2021/07/25 07:15:43;;;;;;;16.27;9.78;;;;;;;30.08;37.71;100380.45;1731986;82;20543;-80
2021/07/25 07:18:10;;;;;;;10.85;9.00;;;;;;;30.08;36.23;100388.59;1724497;83;21693;-79
2021/07/25 07:20:38;;;;;;;15.70;8.98;;;;;;;30.04;35.46;100389.97;1724732;82;21072;-80
2021/07/25 07:23:10;;;;;;;15.18;9.70;;;;;;;30.13;35.44;100387.55;1724852;83;21113;-79
2021/07/25 07:25:40;;;;;;;15.75;9.23;;;;;;;30.28;34.95;100391.76;1724951;83;21626;-81
2021/07/25 07:28:09;;;;;;;13.80;9.58;;;;;;;30.45;35.44;100381.62;1725069;82;21004;-80
2021/07/25 07:30:36;;;;;;;14.20;10.10;;;;;;;30.61;36.09;100384.22;1725064;83;21117;-80
2021/07/25 07:33:13;;;;;;;14.05;11.05;;;;;;;30.64;35.13;100381.64;1725862;82;21031;-81
2021/07/25 07:35:40;;;;;;;14.40;11.48;;;;;;;30.65;35.40;100381.48;1742358;82;21151;-78
2021/07/25 07:38:08;;;;;;;15.90;12.70;;;;;;;30.50;36.38;100388.70;1741945;82;21014;-81
2021/07/25 07:40:36;;;;;;;14.10;12.30;;;;;;;30.42;37.38;100380.63;1742590;82;21645;-79
2021/07/25 07:43:04;;;;;;;16.62;12.58;;;;;;;30.41;37.73;100380.28;1742202;82;21097;-79
2021/07/25 07:45:31;;;;;;;18.00;12.23;;;;;;;30.60;37.45;100376.23;1742523;82;21034;-79
2021/07/25 07:47:59;;;;;;;19.07;11.43;;;;;;;30.98;36.40;100373.59;1742001;82;21138;-80
2021/07/25 07:50:27;;;;;;;16.25;11.08;;;;;;;31.11;35.59;100374.66;1742086;82;21070;-81
2021/07/25 07:52:54;;;;;;;14.05;8.65;;;;;;;31.02;34.11;100373.04;1742416;82;20994;-80
2021/07/25 07:55:21;;;;;;;15.83;10.25;;;;;;;31.04;33.83;100368.27;1742513;82;21045;-79
2021/07/25 07:57:48;;;;;;;11.10;8.90;;;;;;;31.23;33.12;100376.92;1742308;82;21017;-80
2021/07/25 08:00:15;;;;;;;14.85;8.80;;;;;;;31.42;32.00;100380.48;1742190;82;21066;-80
2021/07/25 08:02:42;;;;;;;15.60;9.88;;;;;;;32.18;32.23;100387.06;1742158;82;21129;-80
2021/07/25 08:05:10;;;;;;;13.08;8.53;;;;;;;32.18;32.23;100387.06;1742312;82;21011;-80
2021/07/25 08:07:37;;;;;;;10.90;8.38;;;;;;;32.27;31.09;100387.80;1742330;82;21589;-78
2021/07/25 08:10:07;;;;;;;14.85;9.05;;;;;;;32.37;30.52;100386.45;1742352;82;20998;-81
2021/07/25 08:12:34;;;;;;;12.65;9.98;;;;;;;32.56;31.11;100386.89;1742206;82;21126;-81
2021/07/25 08:15:01;;;;;;;11.53;8.35;;;;;;;32.79;30.53;100389.41;1742205;82;21623;-80
2021/07/25 08:17:28;;;;;;;8.93;7.30;;;;;;;32.87;29.30;100385.70;1747634;81;21008;-80
2021/07/25 08:19:55;;;;;;;10.55;7.35;;;;;;;32.92;29.20;100390.03;1748169;81;21559;-81
2021/07/25 08:22:22;;;;;;;11.08;8.83;;;;;;;32.70;29.46;100390.59;1747938;82;21033;-80
2021/07/25 08:24:49;;;;;;;11.48;8.03;;;;;;;32.51;30.30;100378.42;1748228;82;21142;-81
2021/07/25 08:27:16;;;;;;;10.78;8.00;;;;;;;32.49;30.70;100385.95;1748089;82;21009;-81
2021/07/25 08:29:43;;;;;;;12.20;9.08;;;;;;;32.73;29.19;100382.01;1748569;82;21079;-80
2021/07/25 08:32:10;;;;;;;10.63;7.35;;;;;;;33.03;29.99;100388.14;1748002;82;21084;-79
2021/07/25 08:34:38;;;;;;;16.75;9.28;;;;;;;33.26;28.26;100381.62;1748615;82;21096;-80
2021/07/25 08:37:05;;;;;;;10.18;8.68;;;;;;;33.42;28.65;100386.25;1748030;82;21119;-82
2021/07/25 08:39:32;;;;;;;11.43;7.10;;;;;;;33.21;28.77;100380.86;1748517;81;21048;-81
2021/07/25 08:42:11;;;;;;;8.65;6.87;;;;;;;33.11;27.17;100382.58;1735168;82;21089;-81
2021/07/25 08:44:55;;;;;;;10.08;7.30;;;;;;;33.32;26.09;100379.48;1718481;83;21579;-81
2021/07/25 08:47:39;;;;;;;10.55;6.90;;;;;;;33.72;26.60;100386.03;1718133;83;21063;-80
2021/07/25 08:50:13;;;;;;;10.80;7.75;;;;;;;33.68;26.32;100377.08;1718371;83;21183;-79
2021/07/25 08:52:45;;;;;;;14.78;8.35;;;;;;;33.51;28.62;100370.56;1718261;83;21089;-79
2021/07/25 08:55:16;;;;;;;12.45;8.63;;;;;;;33.22;29.44;100377.95;1718266;83;21549;-80
2021/07/25 08:57:48;;;;;;;10.75;8.28;;;;;;;33.21;27.36;100385.80;1718224;83;21053;-82
2021/07/25 09:00:18;;;;;;;12.57;8.17;;;;;;;33.30;28.20;100375.58;1718715;83;21195;-81
2021/07/25 09:02:45;;;;;;;11.70;8.30;;;;;;;33.44;28.15;100380.59;1718566;83;21739;-80
2021/07/25 09:05:13;;;;;;;11.18;7.92;;;;;;;33.57;27.37;100375.25;1718522;83;21068;-80
2021/07/25 09:07:41;;;;;;;8.88;7.28;;;;;;;33.53;26.77;100378.03;1718110;83;21033;-81
2021/07/25 09:10:13;;;;;;;12.13;6.72;;;;;;;33.33;27.03;100377.06;1733397;82;21058;-81
2021/07/25 09:12:40;;;;;;;10.05;7.22;;;;;;;32.94;26.81;100382.50;1722463;82;21738;-81
2021/07/25 09:15:14;;;;;;;10.85;6.70;;;;;;;32.73;27.70;100386.94;1740930;82;21492;-80
2021/07/25 09:17:41;;;;;;;13.38;6.87;;;;;;;32.67;27.54;100383.64;1732003;82;21137;-80
2021/07/25 09:20:30;;;;;;;8.95;6.92;;;;;;;32.53;28.08;100380.44;1719596;82;21057;-81
2021/07/25 09:23:12;;;;;;;11.88;6.20;;;;;;;32.24;28.04;100386.30;1712633;80;21014;-81
2021/07/25 09:25:47;;;;;;;9.88;7.12;;;;;;;32.00;28.55;100382.55;1738479;80;21150;-80
2021/07/25 09:28:28;;;;;;;11.80;6.87;;;;;;;31.90;29.21;100386.37;1726297;82;21495;-80
2021/07/25 09:30:55;;;;;;;13.93;6.70;;;;;;;31.75;28.60;100380.13;1720119;82;21051;-79
2021/07/25 09:33:33;;;;;;;13.08;7.20;;;;;;;31.79;28.30;100378.69;1726807;82;21099;-81
2021/07/25 09:36:15;;;;;;;14.05;7.95;;;;;;;32.01;28.54;100391.06;1728919;82;21065;-82
2021/07/25 09:38:45;;;;;;;12.33;7.78;;;;;;;32.17;28.48;100393.56;1726833;82;21113;-81
2021/07/25 09:41:26;;;;;;;8.85;7.40;;;;;;;32.21;28.10;100396.23;1727557;82;21138;-81
2021/07/25 09:44:08;;;;;;;;;;;;;;;32.25;27.84;100393.42;1737311;82;21091;-81
2021/07/25 09:46:49;;;;;;;11.33;7.90;;;;;;;32.38;27.50;100385.41;1724070;82;20196;-79
2021/07/25 09:49:18;;;;;;;11.50;7.22;;;;;;;32.94;27.79;100387.43;1720967;82;21150;-79
2021/07/25 09:51:46;;;;;;;6.85;6.12;;;;;;;33.35;27.09;100384.53;1733880;80;21023;-80
2021/07/25 09:54:13;;;;;;;10.63;6.70;;;;;;;33.36;24.99;100384.84;1727195;82;22189;-79
2021/07/25 09:56:43;;;;;;;11.73;7.30;;;;;;;33.47;25.72;100382.91;1724396;82;21069;-80
2021/07/25 09:59:24;;;;;;;9.78;6.58;;;;;;;33.51;25.44;100380.11;1734142;80;43767;-82
2021/07/25 10:01:52;;;;;;;12.40;7.90;;;;;;;33.06;25.75;100388.30;1696297;82;21025;-79
2021/07/25 10:04:21;;;;;;;11.90;7.45;;;;;;;32.85;26.78;100395.95;1691593;83;21175;-80
2021/07/25 10:06:55;;;;;;;11.57;8.18;;;;;;;32.58;27.02;100395.72;1701811;83;21068;-81
2021/07/25 10:09:24;;;;;;;11.80;8.03;;;;;;;32.22;28.19;100395.19;1697247;83;21017;-81
2021/07/25 10:11:59;;;;;;;16.07;8.63;;;;;;;32.11;28.11;100389.70;1709424;83;21878;-81
2021/07/25 10:14:29;;;;;;;9.65;7.60;;;;;;;32.08;28.63;100393.34;1692274;83;21065;-79
2021/07/25 10:16:56;;;;;;;12.73;7.80;;;;;;;32.12;28.05;100383.76;1706986;83;21045;-81
2021/07/25 10:19:42;;;;;;;12.95;7.97;;;;;;;32.40;28.30;100378.41;1718005;83;21061;-81
2021/07/25 10:22:12;;;;;;;10.98;7.70;;;;;;;32.78;27.90;100374.95;1697230;83;21048;-80
2021/07/25 10:24:40;;;;;;;16.12;8.90;;;;;;;33.12;28.03;100374.70;1711440;83;21586;-80
2021/07/25 10:27:07;;;;;;;17.42;9.18;;;;;;;32.94;27.76;100381.14;1722428;83;21006;-80
2021/07/25 10:29:37;;;;;;;15.28;8.53;;;;;;;32.85;28.03;100380.95;1719223;83;21075;-79
2021/07/25 10:32:08;;;;;;;11.12;8.30;;;;;;;32.81;27.33;100385.45;1692528;83;21536;-80
2021/07/25 10:34:37;;;;;;;12.93;8.20;;;;;;;33.01;27.76;100371.12;1677116;84;21016;-79
2021/07/25 10:37:05;;;;;;;11.95;7.62;;;;;;;33.56;27.95;100377.61;1705659;83;21576;-78
2021/07/25 10:39:31;;;;;;;15.83;7.37;;;;;;;33.34;26.01;100376.03;1714333;83;21068;-80
2021/07/25 10:42:03;;;;;;;11.43;7.00;;;;;;;32.69;27.21;100370.63;1719441;83;21092;-80
2021/07/25 10:44:30;;;;;;;11.97;7.33;;;;;;;32.52;27.12;100371.95;1702453;81;21831;-82
2021/07/25 10:47:30;;;;;;;11.40;8.10;;;;;;;32.21;27.58;100381.25;1726320;83;21100;-81
2021/07/25 10:50:20;;;;;;;9.63;7.25;;;;;;;32.10;28.11;100382.58;1719008;83;25767;-78
2021/07/25 10:52:55;;;;;;;11.40;7.33;;;;;;;32.36;27.58;100381.19;1719778;83;21052;-80
2021/07/25 10:55:44;;;;;;;8.43;7.05;;;;;;;32.38;26.09;100388.12;1719740;83;21052;-81
2021/07/25 10:58:19;;;;;;;11.33;6.95;;;;;;;32.39;27.15;100375.34;1716732;81;21150;-78
2021/07/25 11:00:54;;;;;;;11.70;7.17;;;;;;;32.73;26.64;100382.84;1704758;83;21021;-80
2021/07/25 11:03:36;;;;;;;11.55;7.22;;;;;;;32.78;26.29;100379.53;1722946;82;21745;-84
2021/07/25 11:06:10;;;;;;;8.30;6.92;;;;;;;32.59;26.24;100381.03;1696782;84;21120;-83
2021/07/25 11:08:46;;;;;;;9.73;7.15;;;;;;;32.53;27.01;100381.80;1706135;83;21086;-81
2021/07/25 11:11:39;;;;;;;14.03;7.22;;;;;;;32.60;25.91;100378.12;1725967;83;21119;-81
2021/07/25 11:14:07;;;;;;;10.43;7.00;;;;;;;32.64;25.78;100374.47;1701790;83;21105;-80
2021/07/25 11:16:42;;;;;;;13.32;7.20;;;;;;;32.75;26.60;100382.66;1712003;83;21429;-81
2021/07/25 11:19:20;;;;;;;10.20;7.10;;;;;;;32.91;26.36;100381.55;1721345;83;21104;-81
2021/07/25 11:21:53;;;;;;;11.40;7.03;;;;;;;32.97;26.70;100384.86;1715569;83;21586;-82
2021/07/25 11:24:26;;;;;;;11.25;6.42;;;;;;;32.88;27.05;100390.13;1711201;83;21516;-82
2021/07/25 11:26:54;;;;;;;12.07;7.28;;;;;;;32.84;26.62;100377.39;1712178;83;21076;-81